Terminal Aerodrome Forecast
Issued by NWS Milwaukee/Sullivan, WI

Home | Current Version | Previous Version | Text Only | Print | Product List | Glossary On
Versions: 1 2 3 4 5 6 7 8 9 10 11 12 13 14 15 16 17 18 19 20 21 22 23 24 25 26 27
000
FTUS43 KMKX 230520
TAFMKE
TAF
KMKE 230520Z 2306/2412 31004KT 6SM -RA OVC050
     FM231000 VRB03KT P6SM VCSH OVC030
     FM231300 VRB04KT P6SM BKN030
     FM231800 22006KT P6SM BKN035
     FM232100 25008KT P6SM BKN100
     FM240000 28006KT P6SM VCSH BKN050
     FM240500 29009KT P6SM -SHRA BKN020=

USA.gov is the U.S. government's official web portal to all federal, state and local government web resources and services.